Time;durP1;ratioP1;P1;durP2;ratioP2;P2;SDS_P1;SDS_P2;PMS_P1;PMS_P2;Temp;Humidity;BMP_temperature;BMP_pressure;BME280_temperature;BME280_humidity;BME280_pressure;Samples;Min_cycle;Max_cycle;Signal;HPM_P1;HPM_P2
2021/07/21 00:00:48;;;;;;;9.05;5.78;;;15.60;86.40;;;15.69;74.95;101164.97;5028596;28;20084;-83
2021/07/21 00:03:15;;;;;;;12.05;6.43;;;15.60;86.40;;;15.70;74.79;101161.19;5028627;28;20042;-84
2021/07/21 00:05:42;;;;;;;11.13;5.82;;;15.60;86.40;;;15.68;75.07;101166.03;5055518;22;20136;-80
2021/07/21 00:08:10;;;;;;;11.82;6.00;;;15.50;86.70;;;15.69;74.78;101170.44;5046867;28;20599;-80
2021/07/21 00:10:39;;;;;;;10.52;6.15;;;15.50;86.70;;;15.66;74.93;101159.91;5048626;28;20040;-80
2021/07/21 00:16:01;;;;;;;11.18;5.88;;;15.50;86.80;;;15.65;74.88;101181.00;5046812;28;20053;-81
2021/07/21 00:18:31;;;;;;;10.18;5.60;;;15.40;87.00;;;15.66;74.94;101168.97;5048688;28;20041;-81
2021/07/21 00:20:59;;;;;;;10.98;5.90;;;15.50;87.20;;;15.68;75.13;101174.28;5053122;28;20127;-80
2021/07/21 00:23:26;;;;;;;10.63;6.28;;;15.50;87.10;;;15.68;75.36;101180.59;5051414;28;20068;-81
2021/07/21 00:25:54;;;;;;;11.40;6.07;;;15.40;87.20;;;15.74;75.05;101174.31;5048047;28;20116;-80
2021/07/21 00:28:21;;;;;;;11.52;6.32;;;15.50;87.40;;;15.76;75.27;101174.13;5048417;28;20052;-80
2021/07/21 00:30:48;;;;;;;12.57;6.35;;;15.50;87.50;;;15.83;75.01;101177.75;5048308;28;20475;-80
2021/07/21 00:33:18;;;;;;;11.38;6.22;;;15.50;87.70;;;15.77;75.06;101173.09;5048239;28;20501;-80
2021/07/21 00:35:46;;;;;;;11.60;6.40;;;15.50;87.50;;;15.73;75.09;101169.03;5035380;28;20132;-81
2021/07/21 00:38:16;;;;;;;11.65;5.90;;;15.50;87.30;;;15.69;75.13;101163.09;5028347;28;20188;-80
2021/07/21 00:40:44;;;;;;;12.75;6.80;;;15.40;87.40;;;15.67;75.43;101167.06;5045834;28;20041;-80
2021/07/21 00:43:12;;;;;;;13.07;6.75;;;15.40;87.40;;;15.64;75.68;101158.19;5043981;28;20055;-80
2021/07/21 00:45:39;;;;;;;9.98;6.15;;;15.40;87.60;;;15.59;75.80;101155.22;5028078;28;20047;-80
2021/07/21 00:48:07;;;;;;;11.15;5.82;;;15.40;87.80;;;15.57;75.79;101154.59;5042660;28;20079;-80
2021/07/21 00:50:36;;;;;;;12.90;5.85;;;15.30;87.70;;;15.52;76.07;101159.81;5043475;28;20501;-80
2021/07/21 00:53:03;;;;;;;13.00;7.13;;;15.30;87.90;;;15.49;76.20;101154.72;5028312;28;20045;-80
2021/07/21 00:55:31;;;;;;;10.18;6.00;;;15.30;88.00;;;15.48;76.11;101157.66;5043280;28;20045;-80
2021/07/21 00:57:59;;;;;;;9.85;6.00;;;15.20;87.90;;;15.47;76.09;101151.34;5042856;28;20055;-80
2021/07/21 01:00:29;;;;;;;11.65;6.22;;;15.20;87.90;;;15.43;75.80;101155.53;5026412;28;20057;-81
2021/07/21 01:02:57;;;;;;;11.52;6.10;;;15.20;87.80;;;15.40;75.92;101155.94;5027920;28;20437;-81
2021/07/21 01:05:29;;;;;;;12.38;6.10;;;15.10;88.00;;;15.39;76.04;101152.34;5050231;28;20049;-80
2021/07/21 01:08:03;;;;;;;13.13;6.60;;;15.10;88.30;;;15.38;76.17;101147.94;5040019;28;20088;-81
2021/07/21 01:10:36;;;;;;;12.10;5.88;;;15.10;88.20;;;15.34;76.25;101152.09;5046284;28;20049;-80
2021/07/21 01:13:13;;;;;;;11.80;5.75;;;15.10;88.40;;;15.34;76.23;101156.75;5046630;28;20118;-80
2021/07/21 01:15:48;;;;;;;11.23;6.15;;;15.10;88.40;;;15.35;76.19;101162.03;5047877;28;20049;-80
2021/07/21 01:18:22;;;;;;;11.13;6.05;;;15.10;88.40;;;15.29;76.31;101146.38;5046572;28;20081;-80
2021/07/21 01:21:34;;;;;;;11.75;6.28;;;15.00;88.40;;;15.27;76.25;101150.34;5047845;28;20048;-80
2021/07/21 01:24:20;;;;;;;11.48;5.88;;;15.00;88.40;;;15.24;76.38;101152.44;5000394;28;20057;-80
2021/07/21 01:27:11;;;;;;;14.18;6.18;;;15.00;88.60;;;15.21;76.57;101152.88;5043728;28;20068;-80
2021/07/21 01:29:40;;;;;;;11.55;5.85;;;15.00;88.60;;;15.23;76.34;101155.38;5046365;28;20137;-80
2021/07/21 01:32:09;;;;;;;11.93;6.22;;;14.90;88.60;;;15.19;76.39;101152.22;5046529;28;20551;-81
2021/07/21 01:34:38;;;;;;;12.90;6.22;;;14.90;88.80;;;15.20;76.50;101155.81;5050134;28;20075;-80
2021/07/21 01:37:07;;;;;;;10.18;5.95;;;14.90;88.90;;;15.22;76.25;101157.28;5049420;28;20049;-80
2021/07/21 01:39:40;;;;;;;11.55;6.25;;;14.90;88.60;;;15.18;76.17;101153.25;5050157;28;20094;-81
2021/07/21 01:42:16;;;;;;;10.75;6.38;;;14.90;88.40;;;15.12;76.10;101153.22;5051465;28;20093;-80
2021/07/21 01:44:48;;;;;;;13.60;6.00;;;14.90;88.40;;;15.12;76.19;101153.22;5049931;28;20055;-80
2021/07/21 01:47:22;;;;;;;10.15;5.63;;;14.90;88.50;;;15.05;76.40;101150.41;5049367;28;20045;-81
2021/07/21 01:49:53;;;;;;;10.50;5.93;;;14.80;88.50;;;15.05;76.60;101148.50;5051428;28;20481;-81
2021/07/21 01:52:26;;;;;;;12.73;5.85;;;14.80;88.70;;;15.11;76.38;101151.50;5049932;28;20421;-81
2021/07/21 01:55:00;;;;;;;10.88;5.60;;;14.80;88.70;;;15.09;76.17;101154.44;5049711;28;20135;-81
2021/07/21 01:57:32;;;;;;;11.80;5.70;;;14.80;88.90;;;15.05;76.23;101158.63;5050711;28;20045;-81
2021/07/21 02:00:23;;;;;;;12.20;6.18;;;14.80;88.90;;;15.07;75.99;101161.19;5042666;28;20069;-81
2021/07/21 02:02:55;;;;;;;12.63;5.90;;;14.80;89.10;;;14.96;76.47;101162.56;5051114;28;20061;-81
2021/07/21 02:05:47;;;;;;;14.13;6.30;;;14.70;88.70;;;15.00;76.46;101164.72;5042031;28;20128;-81
2021/07/21 02:08:20;;;;;;;11.70;6.43;;;14.70;89.00;;;15.00;76.53;101161.13;5049487;28;20049;-81
2021/07/21 02:10:49;;;;;;;10.07;6.03;;;14.70;88.80;;;14.96;76.74;101160.66;5049266;28;20044;-81
2021/07/21 02:13:26;;;;;;;9.18;6.13;;;14.70;89.20;;;14.95;76.61;101166.38;5049382;28;20088;-81
2021/07/21 02:16:12;;;;;;;11.68;5.65;;;14.70;89.10;;;14.94;76.18;101170.97;5048811;28;20790;-81
2021/07/21 02:18:41;;;;;;;12.55;6.10;;;14.60;89.00;;;14.88;76.23;101168.19;5049217;28;20437;-81
2021/07/21 02:21:10;;;;;;;9.50;5.95;;;14.60;88.70;;;14.80;76.85;101175.50;5049378;28;20061;-81
2021/07/21 02:23:39;;;;;;;9.70;6.25;;;14.60;89.00;;;14.85;76.74;101174.94;5049062;28;20045;-81
2021/07/21 02:26:37;;;;;;;13.98;5.78;;;14.60;89.10;;;14.84;76.48;101170.47;5050090;28;20083;-81
2021/07/21 02:29:07;;;;;;;12.30;6.38;;;14.60;89.10;;;14.82;77.00;101165.19;5049308;28;20055;-81
2021/07/21 02:31:58;;;;;;;10.05;6.20;;;14.60;89.20;;;14.83;76.89;101161.41;5049293;28;20060;-81
2021/07/21 02:34:26;;;;;;;11.57;5.68;;;14.50;89.10;;;14.87;76.63;101159.13;5048243;28;20049;-81
2021/07/21 02:36:54;;;;;;;14.13;6.22;;;14.50;89.10;;;14.88;76.73;101162.72;5049753;28;20119;-81
2021/07/21 02:39:23;;;;;;;11.50;6.47;;;14.60;89.30;;;14.86;76.84;101160.16;5048822;28;20179;-81
2021/07/21 02:41:51;;;;;;;12.05;5.93;;;14.60;89.30;;;14.83;76.77;101164.16;5048800;28;20044;-81
2021/07/21 02:44:21;;;;;;;9.90;5.78;;;14.50;89.30;;;14.75;77.01;101168.91;5048385;28;20037;-81
2021/07/21 02:46:52;;;;;;;9.45;6.15;;;14.50;89.10;;;14.77;76.83;101166.81;5048086;28;20084;-81
2021/07/21 02:49:22;;;;;;;11.10;5.97;;;14.50;89.20;;;14.77;76.75;101169.56;5048855;28;20492;-81
2021/07/21 02:52:05;;;;;;;11.93;6.55;;;14.50;89.40;;;14.73;76.81;101162.78;5050123;28;20048;-81
2021/07/21 02:55:03;;;;;;;11.48;6.32;;;14.50;89.40;;;14.72;76.80;101170.16;5048780;28;20079;-81
2021/07/21 02:57:41;;;;;;;12.30;6.10;;;14.40;89.40;;;14.70;76.90;101166.78;5049390;28;20045;-81
2021/07/21 03:00:16;;;;;;;10.73;5.85;;;14.40;89.50;;;14.60;77.22;101167.09;5050000;28;20033;-81
2021/07/21 03:02:53;;;;;;;9.82;5.68;;;14.40;89.40;;;14.61;77.44;101159.72;5048410;28;20525;-81
2021/07/21 03:05:25;;;;;;;10.82;6.18;;;14.40;89.50;;;14.59;77.03;101172.75;5048292;28;20064;-81
2021/07/21 03:08:02;;;;;;;9.70;6.15;;;14.40;89.40;;;14.60;77.25;101172.56;5047616;28;20048;-81
2021/07/21 03:10:30;;;;;;;9.57;5.35;;;14.30;89.40;;;14.58;77.01;101168.31;5048430;28;20045;-81
2021/07/21 03:13:13;;;;;;;10.73;6.35;;;14.30;89.40;;;14.55;77.15;101177.75;5048070;28;20127;-81
2021/07/21 03:15:51;;;;;;;10.55;5.90;;;14.30;89.50;;;14.59;77.13;101172.75;5047845;28;20049;-81
2021/07/21 03:18:27;;;;;;;9.50;5.80;;;14.30;89.60;;;14.52;77.30;101175.38;5048002;28;20052;-81
2021/07/21 03:21:00;;;;;;;12.55;6.45;;;14.30;89.50;;;14.53;77.43;101170.78;5061121;28;20079;-81
2021/07/21 03:23:32;;;;;;;9.85;5.90;;;14.30;89.60;;;14.51;77.53;101172.84;5055377;28;20057;-81
2021/07/21 03:26:21;;;;;;;10.98;5.97;;;14.20;89.60;;;14.52;77.17;101180.88;5028271;28;20046;-81
2021/07/21 03:28:50;;;;;;;9.65;6.18;;;14.20;89.70;;;14.52;77.18;101180.03;5028354;28;20045;-81
2021/07/21 03:31:20;;;;;;;10.40;6.28;;;14.30;89.80;;;14.47;77.41;101189.69;5027819;28;20498;-81
2021/07/21 03:34:03;;;;;;;11.38;6.18;;;14.20;89.70;;;14.47;77.25;101189.69;5028042;28;20413;-81
2021/07/21 03:36:37;;;;;;;12.10;6.18;;;14.20;89.80;;;14.53;77.41;101189.97;5027015;28;20609;-81
2021/07/21 03:39:27;;;;;;;11.77;5.75;;;14.20;90.00;;;14.46;77.40;101193.44;5027993;28;20416;-81
2021/07/21 03:42:18;;;;;;;10.93;6.30;;;14.20;89.70;;;14.49;77.29;101192.22;5025715;28;20049;-81
2021/07/21 03:44:49;;;;;;;9.35;5.70;;;14.20;89.80;;;14.43;77.31;101193.84;5027390;28;20464;-80
2021/07/21 03:47:19;;;;;;;9.05;5.68;;;14.20;89.60;;;14.44;77.34;101195.53;5026763;28;20579;-81
2021/07/21 03:49:48;;;;;;;10.13;5.65;;;14.20;89.80;;;14.43;77.48;101187.50;5027989;28;20060;-81
2021/07/21 03:52:19;;;;;;;11.68;6.03;;;14.20;89.80;;;14.37;77.58;101191.84;5027599;28;20056;-81
2021/07/21 03:55:06;;;;;;;11.85;6.13;;;14.20;89.70;;;14.29;77.61;101194.72;5026489;28;20053;-81
2021/07/21 03:57:58;;;;;;;12.13;5.93;;;14.20;89.50;;;14.32;77.85;101190.75;5028185;28;20049;-81
2021/07/21 04:00:37;;;;;;;16.55;6.22;;;14.20;89.70;;;14.31;78.24;101194.53;5027369;28;20049;-81
2021/07/21 04:03:09;;;;;;;11.43;5.55;;;14.20;89.70;;;14.28;78.14;101198.53;5027678;28;20056;-80
2021/07/21 04:06:03;;;;;;;11.90;6.30;;;14.20;89.70;;;14.30;78.08;101201.03;5026575;28;20050;-81
2021/07/21 04:08:57;;;;;;;10.55;6.00;;;14.20;89.70;;;14.32;78.18;101201.69;5027423;28;20057;-81
2021/07/21 04:11:30;;;;;;;11.45;6.45;;;14.20;89.60;;;14.36;78.00;101203.03;5028681;28;20041;-81
2021/07/21 04:14:01;;;;;;;10.10;5.88;;;14.30;89.80;;;14.33;78.23;101204.25;5027169;28;20052;-80
2021/07/21 04:16:51;;;;;;;11.20;5.93;;;14.30;89.60;;;14.37;78.54;101200.06;5026600;28;20049;-81
2021/07/21 04:19:22;;;;;;;9.80;5.68;;;14.30;89.80;;;14.42;78.42;101200.34;5027351;28;20512;-82
2021/07/21 04:21:52;;;;;;;8.13;5.28;;;14.30;89.80;;;14.45;78.53;101201.88;5028501;28;20052;-81
2021/07/21 04:24:21;;;;;;;8.75;5.50;;;14.40;89.90;;;14.49;78.61;101203.19;5026978;28;20099;-81
2021/07/21 04:26:51;;;;;;;11.93;5.55;;;14.40;89.90;;;14.54;78.41;101202.59;5026235;28;20052;-81
2021/07/21 04:29:23;;;;;;;10.50;6.05;;;14.40;89.90;;;14.57;78.67;101204.97;5027094;28;20056;-81
2021/07/21 04:31:52;;;;;;;9.15;5.45;;;14.50;90.00;;;14.65;78.38;101207.59;5028562;28;20056;-81
2021/07/21 04:34:22;;;;;;;10.82;6.10;;;14.50;89.70;;;14.67;78.37;101202.75;5028219;28;20041;-81
2021/07/21 04:36:56;;;;;;;11.88;6.35;;;14.60;89.80;;;14.75;78.53;101213.59;5026510;28;20049;-81
2021/07/21 04:39:37;;;;;;;10.85;5.97;;;14.70;89.90;;;14.81;78.22;101217.44;5027002;28;20064;-82
2021/07/21 04:42:36;;;;;;;12.20;5.90;;;14.70;89.60;;;14.86;78.13;101215.81;5021162;28;20121;-82
2021/07/21 04:45:07;;;;;;;11.43;5.90;;;14.80;89.40;;;14.80;78.55;101215.75;5027004;28;20047;-81
2021/07/21 04:47:36;;;;;;;12.20;6.70;;;14.90;89.30;;;14.83;78.62;101220.81;5026441;28;20050;-82
2021/07/21 04:50:11;;;;;;;11.00;6.30;;;14.90;89.30;;;14.95;77.95;101219.28;5026930;28;20069;-81
2021/07/21 04:52:40;;;;;;;10.20;5.97;;;15.00;89.00;;;15.07;77.80;101233.31;5028504;28;20045;-82
2021/07/21 04:55:09;;;;;;;14.88;6.80;;;15.20;88.50;;;15.14;77.37;101227.91;5026531;28;20045;-82
2021/07/21 04:57:42;;;;;;;13.00;6.05;;;15.20;87.80;;;15.19;77.21;101239.97;5026068;28;20052;-82
2021/07/21 05:00:17;;;;;;;9.88;6.68;;;15.40;87.20;;;15.19;78.00;101234.47;5026939;28;20131;-81
2021/07/21 05:02:52;;;;;;;12.32;6.35;;;15.50;87.40;;;15.22;77.90;101234.06;5026823;28;20060;-81
2021/07/21 05:05:21;;;;;;;14.18;6.35;;;15.70;87.10;;;15.28;77.72;101237.06;5028301;28;20037;-81
2021/07/21 05:07:59;;;;;;;10.82;5.75;;;15.80;86.70;;;15.40;77.51;101243.69;5029766;28;20056;-81
2021/07/21 05:10:29;;;;;;;11.88;6.45;;;16.00;86.00;;;15.47;77.09;101233.63;5030849;28;20081;-82
2021/07/21 05:12:57;;;;;;;11.65;6.20;;;16.10;85.50;;;15.51;77.15;101234.94;5030652;28;20136;-81
2021/07/21 05:15:29;;;;;;;10.88;6.13;;;16.20;85.20;;;15.51;77.56;101234.94;5038625;28;20524;-80
2021/07/21 05:18:10;;;;;;;11.45;6.30;;;16.20;85.10;;;15.58;77.18;101235.84;5050054;28;20124;-79
2021/07/21 05:20:47;;;;;;;12.90;6.50;;;16.30;84.80;;;15.59;77.54;101236.66;5050694;28;20504;-81
2021/07/21 05:23:18;;;;;;;10.65;6.22;;;16.40;84.90;;;15.62;77.74;101248.09;5052009;28;20142;-81
2021/07/21 05:26:02;;;;;;;11.68;6.50;;;16.50;84.90;;;15.63;77.32;101259.91;5049726;28;20053;-82
2021/07/21 05:28:37;;;;;;;12.38;5.68;;;16.50;84.40;;;15.67;77.62;101247.50;5050591;28;20064;-85
2021/07/21 05:31:13;;;;;;;12.25;7.00;;;16.60;84.60;;;15.73;77.93;101244.00;5051606;28;20045;-84
2021/07/21 05:34:00;;;;;;;10.82;6.25;;;16.60;84.80;;;15.79;76.96;101247.84;5055358;28;20048;-84
2021/07/21 05:36:35;;;;;;;11.70;6.40;;;16.70;84.10;;;15.85;76.80;101251.66;5063098;28;20056;-84
2021/07/21 05:39:06;;;;;;;11.95;6.07;;;16.70;83.80;;;15.89;76.68;101251.06;5050557;28;20434;-85
2021/07/21 05:41:34;;;;;;;10.85;6.38;;;16.80;83.60;;;15.92;76.73;101253.41;5049939;28;20470;-84
2021/07/21 05:44:06;;;;;;;12.10;5.97;;;16.90;83.30;;;15.98;76.62;101254.50;5049987;28;20045;-85
2021/07/21 05:46:36;;;;;;;;;;;16.90;83.10;;;16.02;76.17;101253.88;5066590;28;20048;-84
2021/07/21 05:49:03;;;;;;;9.88;6.25;;;17.00;82.70;;;16.06;76.54;101259.81;5050009;28;20317;-84
2021/07/21 05:51:37;;;;;;;12.43;6.57;;;17.10;82.80;;;16.10;76.49;101257.50;5047658;28;20465;-85
2021/07/21 05:54:15;;;;;;;13.32;6.25;;;17.10;82.70;;;16.15;76.70;101258.59;5030967;28;20056;-83
2021/07/21 05:56:43;;;;;;;15.80;6.50;;;17.20;82.50;;;16.26;77.15;101254.44;5030624;28;20092;-86
2021/07/21 05:59:17;;;;;;;14.57;8.35;;;17.40;83.00;;;16.42;76.24;101258.72;5029419;28;20096;-84
2021/07/21 06:01:45;;;;;;;16.10;8.13;;;19.50;74.90;;;16.59;75.72;101262.81;5046296;28;20080;-84
2021/07/21 06:04:12;;;;;;;11.77;6.70;;;21.00;66.40;;;16.82;74.83;101264.38;5029584;28;20711;-85
2021/07/21 06:07:16;;;;;;;13.45;6.78;;;21.40;65.60;;;17.08;74.08;101260.00;5030322;28;20362;-85
2021/07/21 06:10:02;;;;;;;12.38;7.13;;;23.00;58.60;;;17.32;73.46;101261.28;5031203;28;20056;-85
2021/07/21 06:12:40;;;;;;;14.15;6.57;;;23.90;56.20;;;17.54;73.43;101271.03;5029724;28;20127;-85
2021/07/21 06:15:10;;;;;;;17.58;7.25;;;25.50;51.70;;;17.73;72.17;101263.81;5029497;28;20057;-85
2021/07/21 06:17:38;;;;;;;17.10;7.30;;;26.60;48.00;;;17.92;71.87;101259.38;5028245;28;20056;-85
2021/07/21 06:20:08;;;;;;;13.93;6.97;;;27.50;45.70;;;18.08;71.78;101260.78;5046156;22;20045;-87
2021/07/21 06:22:43;;;;;;;13.52;6.95;;;28.10;43.90;;;18.21;71.07;101261.84;5050793;28;20040;-83
2021/07/21 06:25:40;;;;;;;13.70;6.72;;;28.70;42.00;;;18.34;71.07;101270.91;5052695;28;20052;-85
2021/07/21 06:28:13;;;;;;;11.63;6.05;;;29.20;41.60;;;18.43;70.75;101262.38;5069793;28;20045;-85
2021/07/21 06:30:42;;;;;;;12.40;6.50;;;29.40;40.10;;;18.49;69.88;101261.53;5065103;28;20055;-84
2021/07/21 06:33:17;;;;;;;12.73;6.05;;;28.80;40.20;;;18.55;69.92;101264.22;5050585;28;20052;-84
2021/07/21 06:35:44;;;;;;;;;;;27.00;46.10;;;18.59;69.54;101263.81;5030244;28;20155;-85
2021/07/21 06:38:14;;;;;;;12.23;5.65;;;25.60;50.10;;;18.64;71.36;101267.59;5030803;28;19959;-85
2021/07/21 06:40:48;;;;;;;11.15;5.70;;;24.70;54.30;;;18.68;70.69;101268.00;5031866;28;20057;-84
2021/07/21 06:43:15;;;;;;;12.32;5.85;;;24.10;56.30;;;18.70;68.24;101263.94;5031705;28;20505;-85
2021/07/21 06:46:03;;;;;;;15.65;5.53;;;23.60;55.90;;;18.73;68.06;101271.81;5048463;28;20045;-85
2021/07/21 06:48:31;;;;;;;11.50;5.20;;;23.20;57.80;;;18.78;67.88;101273.88;5050278;28;20073;-90
2021/07/21 06:50:59;;;;;;;11.07;5.28;;;23.00;58.40;;;18.81;68.61;101272.63;5032301;28;20421;-91
2021/07/21 06:53:39;;;;;;;10.90;5.10;;;22.80;59.00;;;18.78;66.09;101282.16;5031922;28;20404;-88
2021/07/21 07:29:24;;;;;;;9.10;4.80;;;22.10;61.70;;;19.31;65.64;101289.28;5047909;28;20057;-88
2021/07/21 07:32:09;;;;;;;10.25;4.50;;;22.10;62.20;;;19.34;65.29;101292.44;5049420;28;20122;-93
2021/07/21 07:34:37;;;;;;;8.82;4.35;;;22.00;62.00;;;19.39;66.40;101300.03;5030051;28;20040;-92
2021/07/21 07:37:05;;;;;;;9.65;4.88;;;22.10;63.30;;;19.37;64.16;101296.66;5048661;28;20048;-90
2021/07/21 07:39:32;;;;;;;9.30;4.50;;;22.10;61.00;;;19.46;64.28;101303.59;5030748;28;20386;-90
2021/07/21 07:42:05;;;;;;;7.15;4.10;;;22.20;60.40;;;19.47;66.89;101305.28;5049222;28;20049;-92
2021/07/21 07:44:34;;;;;;;11.90;4.80;;;22.10;62.90;;;19.54;64.65;101294.19;5031710;28;20037;-92
2021/07/21 07:47:01;;;;;;;11.20;5.68;;;22.20;61.40;;;19.58;64.70;101298.19;5049941;28;20517;-91
2021/07/21 08:00:32;;;;;;;10.48;5.20;;;22.30;60.70;;;19.75;62.17;101295.75;5064751;28;20048;-88
2021/07/21 08:03:00;;;;;;;10.68;5.00;;;22.40;60.30;;;19.83;62.25;101297.38;5048103;28;20056;-88
2021/07/21 08:05:27;;;;;;;10.52;4.93;;;22.40;59.60;;;19.89;63.42;101305.56;5048290;28;20398;-88
2021/07/21 08:07:56;;;;;;;10.30;5.35;;;22.50;61.00;;;19.92;59.42;101304.31;5047782;28;20044;-88
2021/07/21 08:10:24;;;;;;;10.40;5.50;;;22.50;57.00;;;19.83;58.99;101303.72;5065460;28;20190;-88
2021/07/21 08:12:51;;;;;;;10.38;5.25;;;22.40;57.40;;;19.80;59.60;101303.34;5048021;28;20060;-87
2021/07/21 08:15:18;;;;;;;11.88;4.75;;;22.40;58.10;;;19.90;63.65;101304.53;5065454;28;20048;-88
2021/07/21 08:17:47;;;;;;;10.18;5.15;;;22.40;61.20;;;19.92;59.76;101302.38;5064380;28;20143;-89
2021/07/21 08:20:15;;;;;;;9.55;5.05;;;22.50;58.80;;;20.01;64.06;101299.31;5065538;28;20044;-88
2021/07/21 08:22:43;;;;;;;9.77;5.10;;;22.50;61.30;;;20.09;64.86;101301.78;5066093;28;20044;-89
2021/07/21 08:25:13;;;;;;;10.98;5.75;;;22.60;61.80;;;20.14;63.52;101301.09;5047516;28;20045;-88
2021/07/21 08:27:47;;;;;;;9.00;5.20;;;22.70;61.90;;;20.13;60.66;101297.50;5047848;28;20163;-90
2021/07/21 08:30:15;;;;;;;9.90;5.13;;;22.70;57.90;;;20.08;57.83;101294.56;5047820;28;20044;-89
2021/07/21 08:32:47;;;;;;;9.27;5.45;;;22.60;56.90;;;20.16;59.53;101283.19;5044489;28;20048;-89
2021/07/21 08:35:19;;;;;;;11.38;5.28;;;22.70;58.40;;;20.24;59.38;101301.44;5027685;28;20158;-89
2021/07/21 08:37:47;;;;;;;11.25;5.53;;;22.80;58.60;;;20.22;57.10;101296.13;5044033;28;20508;-90
2021/07/21 08:40:16;;;;;;;9.30;5.18;;;22.80;56.10;;;20.35;60.13;101288.75;5028030;28;20045;-88
2021/07/21 08:42:44;;;;;;;9.50;5.10;;;23.00;58.30;;;20.45;58.53;101289.91;5032464;28;20051;-89
2021/07/21 08:45:12;;;;;;;10.25;5.35;;;23.10;57.50;;;20.55;59.67;101294.88;5042718;28;20310;-89
2021/07/21 08:47:40;;;;;;;9.00;5.05;;;23.20;58.00;;;20.55;57.18;101292.13;5065403;28;20501;-89
2021/07/21 08:50:10;;;;;;;11.10;5.10;;;23.30;56.20;;;20.49;55.74;101290.28;5065109;28;20497;-90
2021/07/21 08:52:39;;;;;;;8.80;5.05;;;23.30;55.60;;;20.43;56.59;101296.75;5047484;28;20656;-89
2021/07/21 08:55:10;;;;;;;11.68;5.85;;;23.10;54.50;;;20.40;56.32;101298.03;5047578;28;20638;-89
2021/07/21 08:57:38;;;;;;;8.68;5.10;;;23.00;56.20;;;20.33;57.78;101301.94;5045466;28;20696;-89
2021/07/21 09:00:13;;;;;;;7.93;4.70;;;23.00;57.50;;;20.27;61.75;101287.97;5044631;28;20041;-89
2021/07/21 09:02:44;;;;;;;10.25;4.90;;;22.90;60.80;;;20.29;61.89;101296.88;5044062;28;20683;-89
2021/07/21 09:05:15;;;;;;;13.23;5.10;;;22.90;60.50;;;20.30;58.41;101295.81;5026689;28;20049;-90
2021/07/21 09:07:45;;;;;;;8.27;4.97;;;22.80;59.30;;;20.24;57.17;101293.97;5045215;28;20033;-89
2021/07/21 09:10:15;;;;;;;9.50;4.47;;;22.80;54.90;;;20.22;57.73;101292.50;5027852;28;20139;-90
2021/07/21 09:12:44;;;;;;;8.70;4.68;;;22.70;57.00;;;20.22;61.71;101300.78;5029375;28;20049;-89
2021/07/21 09:15:16;;;;;;;8.52;4.82;;;22.70;59.80;;;20.20;58.81;101298.28;5027420;28;20156;-89
2021/07/21 09:18:07;;;;;;;9.38;4.88;;;22.70;57.30;;;20.21;58.02;101299.94;5045181;28;20045;-90
2021/07/21 09:20:37;;;;;;;11.63;4.95;;;22.80;57.60;;;20.25;58.03;101300.34;5027530;28;20088;-90
2021/07/21 09:23:06;;;;;;;10.00;4.93;;;22.80;57.10;;;20.25;58.77;101297.56;5027200;28;20052;-89
2021/07/21 09:25:35;;;;;;;9.38;4.80;;;22.80;57.90;;;20.25;56.61;101300.34;5026808;28;20044;-89
2021/07/21 09:28:07;;;;;;;10.13;5.20;;;22.80;57.00;;;20.27;60.03;101304.56;5027119;28;20041;-89
2021/07/21 09:30:36;;;;;;;;;;;22.80;58.10;;;20.31;60.98;101294.75;5037154;28;20048;-89
2021/07/21 09:33:06;;;;;;;10.70;4.60;;;22.90;59.20;;;20.29;57.97;101302.41;5067226;28;19924;-89
2021/07/21 09:35:36;;;;;;;9.47;4.77;;;22.90;56.90;;;20.29;56.52;101299.63;5066865;28;20105;-89
2021/07/21 09:38:09;;;;;;;13.73;5.23;;;22.80;55.00;;;20.23;54.88;101299.72;5066995;28;20834;-89
2021/07/21 09:40:41;;;;;;;10.32;5.38;;;22.70;53.70;;;20.22;54.63;101301.66;5067043;28;20442;-90
2021/07/21 09:43:12;;;;;;;18.75;11.00;;;22.60;54.40;;;20.24;55.66;101299.50;5084081;28;20117;-90
2021/07/21 09:45:41;;;;;;;10.55;6.57;;;22.70;56.60;;;20.28;57.92;101300.72;5063829;28;20151;-89
2021/07/21 09:48:09;;;;;;;11.38;5.45;;;22.80;56.80;;;20.33;56.49;101307.47;5064680;28;20036;-89
2021/07/21 09:50:40;;;;;;;8.77;5.07;;;22.80;56.20;;;20.35;60.60;101299.78;5063734;28;20540;-89
2021/07/21 09:53:12;;;;;;;13.23;5.93;;;22.90;58.30;;;20.36;58.83;101295.97;5065408;28;20055;-89
2021/07/21 09:55:43;;;;;;;10.07;5.03;;;22.90;58.10;;;20.36;55.73;101301.50;5050734;28;20139;-88
2021/07/21 09:58:16;;;;;;;8.80;5.15;;;22.90;55.20;;;20.39;58.53;101301.03;5050084;28;20063;-90
2021/07/21 10:00:45;;;;;;;12.65;5.47;;;22.90;57.30;;;20.40;56.55;101313.78;5050202;28;20048;-88
2021/07/21 10:03:17;;;;;;;12.95;5.22;;;22.90;56.80;;;20.39;57.37;101301.88;5050236;28;20052;-88
2021/07/21 10:06:02;;;;;;;10.85;6.28;;;22.90;56.70;;;20.39;57.36;101301.03;5050269;28;20048;-88
2021/07/21 10:08:39;;;;;;;11.18;6.07;;;22.90;57.10;;;20.41;61.87;101299.72;5050175;28;20473;-89
2021/07/21 10:11:28;;;;;;;11.00;5.20;;;22.90;59.00;;;20.41;57.13;101302.50;5050210;28;20055;-89
2021/07/21 10:14:11;;;;;;;11.88;5.85;;;22.90;56.50;;;20.41;57.36;101309.94;5050376;28;20053;-88
2021/07/21 10:16:42;;;;;;;10.63;5.20;;;22.90;56.50;;;20.35;55.51;101300.63;5049319;28;20570;-88
2021/07/21 10:19:13;;;;;;;11.23;5.53;;;22.70;54.10;;;20.34;56.62;101303.66;5050498;28;20144;-88
2021/07/21 10:21:44;;;;;;;8.85;5.15;;;22.70;55.90;;;20.35;54.61;101306.16;5067864;28;20052;-88
2021/07/21 10:24:14;;;;;;;9.13;5.13;;;22.70;54.70;;;20.40;55.34;101305.50;5068314;28;20040;-88
2021/07/21 10:26:43;;;;;;;9.50;5.47;;;22.80;55.40;;;20.36;54.88;101304.25;5049694;28;20048;-88
2021/07/21 10:29:13;;;;;;;9.55;5.70;;;22.80;54.90;;;20.39;54.77;101312.06;5065421;28;20785;-88
2021/07/21 10:31:42;;;;;;;9.00;5.10;;;22.80;54.60;;;20.43;57.31;101303.13;5047492;28;20045;-88
2021/07/21 10:34:10;;;;;;;10.18;5.22;;;22.90;56.70;;;20.44;55.80;101301.19;5053816;28;20166;-88
2021/07/21 10:36:39;;;;;;;10.23;5.30;;;22.90;55.70;;;20.46;56.93;101299.03;5049217;28;20131;-88
2021/07/21 10:39:13;;;;;;;8.85;5.07;;;23.00;56.30;;;20.46;55.75;101297.09;5047528;28;20059;-88
2021/07/21 10:41:45;;;;;;;9.02;4.95;;;22.90;55.30;;;20.45;55.77;101295.44;5029707;28;20049;-88
2021/07/21 10:44:16;;;;;;;9.40;4.82;;;23.00;55.70;;;20.49;54.66;101295.81;5029455;28;20057;-88
2021/07/21 10:46:45;;;;;;;9.48;5.40;;;23.00;55.20;;;20.48;54.32;101296.88;5042896;28;20049;-88
2021/07/21 10:49:22;;;;;;;8.35;4.75;;;23.00;54.50;;;20.48;55.12;101296.88;5050351;28;20062;-88
2021/07/21 10:52:54;;;;;;;10.73;5.25;;;23.00;54.20;;;20.52;54.97;101292.56;5050128;28;20052;-88
2021/07/21 10:55:31;;;;;;;9.27;4.93;;;23.10;55.20;;;20.48;53.56;101294.09;5067511;28;20040;-88
2021/07/21 11:00:57;;;;;;;10.80;5.70;;;23.00;54.10;;;20.51;54.87;101293.66;5067272;28;20052;-88
2021/07/21 11:03:31;;;;;;;8.35;5.00;;;23.10;54.30;;;20.52;54.36;101292.56;5057871;28;20097;-89
2021/07/21 11:06:01;;;;;;;8.75;5.05;;;23.00;54.10;;;20.52;55.97;101289.81;5028577;28;20053;-88
2021/07/21 11:08:30;;;;;;;8.48;4.82;;;23.00;55.40;;;20.56;56.08;101285.53;5029126;28;20049;-88
2021/07/21 11:11:10;;;;;;;15.27;5.80;;;23.00;55.30;;;20.61;55.88;101293.13;5029428;28;20045;-88
2021/07/21 11:13:41;;;;;;;9.50;5.10;;;23.10;55.00;;;20.62;56.25;101292.91;5029129;28;20484;-89
2021/07/21 11:16:40;;;;;;;9.75;5.50;;;23.20;54.50;;;20.64;54.60;101295.44;5028803;28;20045;-88
2021/07/21 11:19:46;;;;;;;11.93;6.55;;;23.20;54.60;;;20.66;55.78;101294.13;5047022;28;20052;-88
2021/07/21 11:22:28;;;;;;;9.40;5.60;;;23.20;54.60;;;20.68;56.03;101289.22;5032432;28;20068;-88
2021/07/21 11:25:15;;;;;;;11.52;5.72;;;23.30;55.40;;;20.70;57.10;101291.75;5028729;28;20053;-88